GRZ525 Details

Departure: Edmonton International Airport (CYEG)
Arrival: Ted Stevens Anchorage International Airport (PANC)
Route: NUBEG NCA11 REMBY PTERS3


Current Weather Information
CYEG 191549Z 33003KT 15SM FEW005 BKN013 OVC057 12/11 A2990 RMK SF1CU5SC3 SF TR SLP140 DENSITY ALT 2600FT
PANC 191553Z 00000KT 10SM BKN025 BKN200 09/02 A2995 RMK AO2 SLP142 FU BKN025 T00890022